sensor_id;sensor_type;location;lat;lon;timestamp;temperature;humidity
73438;DHT22;62744;56.802;23.964;2022-11-06T00:00:34;6.40;99.90
73438;DHT22;62744;56.802;23.964;2022-11-06T00:03:03;6.40;99.90
73438;DHT22;62744;56.802;23.964;2022-11-06T00:05:33;6.50;99.90
73438;DHT22;62744;56.802;23.964;2022-11-06T00:08:38;6.40;99.90
73438;DHT22;62744;56.802;23.964;2022-11-06T00:11:12;6.40;99.90
73438;DHT22;62744;56.802;23.964;2022-11-06T00:13:41;6.40;99.90
73438;DHT22;62744;56.802;23.964;2022-11-06T00:16:11;6.40;99.90
73438;DHT22;62744;56.802;23.964;2022-11-06T00:18:39;6.50;99.90
73438;DHT22;62744;56.802;23.964;2022-11-06T00:21:10;6.40;99.90
73438;DHT22;62744;56.802;23.964;2022-11-06T00:23:38;6.30;99.90
73438;DHT22;62744;56.802;23.964;2022-11-06T00:26:12;6.40;99.90
73438;DHT22;62744;56.802;23.964;2022-11-06T00:28:40;6.60;99.90
73438;DHT22;62744;56.802;23.964;2022-11-06T00:31:12;6.60;99.90
73438;DHT22;62744;56.802;23.964;2022-11-06T00:33:41;6.50;99.90
73438;DHT22;62744;56.802;23.964;2022-11-06T00:36:18;6.70;99.90
73438;DHT22;62744;56.802;23.964;2022-11-06T00:38:46;6.70;99.90
73438;DHT22;62744;56.802;23.964;2022-11-06T00:41:17;6.60;99.90
73438;DHT22;62744;56.802;23.964;2022-11-06T00:43:50;6.80;99.90
73438;DHT22;62744;56.802;23.964;2022-11-06T00:46:18;6.80;99.90
73438;DHT22;62744;56.802;23.964;2022-11-06T00:48:47;6.80;99.90
73438;DHT22;62744;56.802;23.964;2022-11-06T00:51:28;6.80;99.90
73438;DHT22;62744;56.802;23.964;2022-11-06T00:54:01;6.80;99.90
73438;DHT22;62744;56.802;23.964;2022-11-06T00:56:30;6.90;99.90
73438;DHT22;62744;56.802;23.964;2022-11-06T00:59:03;6.90;99.90
73438;DHT22;62744;56.802;23.964;2022-11-06T01:01:34;6.90;99.90
73438;DHT22;62744;56.802;23.964;2022-11-06T01:04:09;6.90;99.90
73438;DHT22;62744;56.802;23.964;2022-11-06T01:06:43;7.00;99.90
73438;DHT22;62744;56.802;23.964;2022-11-06T01:09:14;6.90;99.90
73438;DHT22;62744;56.802;23.964;2022-11-06T01:11:48;7.00;99.90
73438;DHT22;62744;56.802;23.964;2022-11-06T01:14:38;7.00;99.90
73438;DHT22;62744;56.802;23.964;2022-11-06T01:17:05;7.10;99.90
73438;DHT22;62744;56.802;23.964;2022-11-06T01:19:33;6.90;99.90
73438;DHT22;62744;56.802;23.964;2022-11-06T01:22:00;7.00;99.90
73438;DHT22;62744;56.802;23.964;2022-11-06T01:24:28;7.00;99.90
73438;DHT22;62744;56.802;23.964;2022-11-06T01:26:56;7.20;99.90
73438;DHT22;62744;56.802;23.964;2022-11-06T01:29:44;7.00;99.90
73438;DHT22;62744;56.802;23.964;2022-11-06T01:32:11;7.00;99.90
73438;DHT22;62744;56.802;23.964;2022-11-06T01:34:39;7.00;99.90
73438;DHT22;62744;56.802;23.964;2022-11-06T01:37:06;7.10;99.90
73438;DHT22;62744;56.802;23.964;2022-11-06T01:39:40;7.20;99.90
73438;DHT22;62744;56.802;23.964;2022-11-06T01:42:12;7.30;99.90
73438;DHT22;62744;56.802;23.964;2022-11-06T01:47:21;7.20;99.90
73438;DHT22;62744;56.802;23.964;2022-11-06T01:49:50;7.30;99.90
73438;DHT22;62744;56.802;23.964;2022-11-06T01:52:20;7.20;99.90
73438;DHT22;62744;56.802;23.964;2022-11-06T01:54:52;7.30;99.90
73438;DHT22;62744;56.802;23.964;2022-11-06T01:57:21;7.20;99.90
73438;DHT22;62744;56.802;23.964;2022-11-06T01:59:50;7.20;99.90
73438;DHT22;62744;56.802;23.964;2022-11-06T02:02:18;7.10;99.90
73438;DHT22;62744;56.802;23.964;2022-11-06T02:04:47;7.20;99.90
73438;DHT22;62744;56.802;23.964;2022-11-06T02:07:17;7.20;99.90
73438;DHT22;62744;56.802;23.964;2022-11-06T02:09:45;7.30;99.90
73438;DHT22;62744;56.802;23.964;2022-11-06T02:29:33;7.30;99.90
73438;DHT22;62744;56.802;23.964;2022-11-06T02:32:13;7.30;99.90
73438;DHT22;62744;56.802;23.964;2022-11-06T02:34:43;7.40;99.90
73438;DHT22;62744;56.802;23.964;2022-11-06T02:37:23;7.40;99.90
73438;DHT22;62744;56.802;23.964;2022-11-06T02:39:53;7.50;99.90
73438;DHT22;62744;56.802;23.964;2022-11-06T02:42:24;7.50;99.90
73438;DHT22;62744;56.802;23.964;2022-11-06T02:44:55;7.40;99.90
73438;DHT22;62744;56.802;23.964;2022-11-06T02:47:24;7.50;99.90
73438;DHT22;62744;56.802;23.964;2022-11-06T02:50:09;7.50;99.90
73438;DHT22;62744;56.802;23.964;2022-11-06T02:52:43;7.50;99.90
73438;DHT22;62744;56.802;23.964;2022-11-06T02:55:18;7.50;99.90
73438;DHT22;62744;56.802;23.964;2022-11-06T02:57:52;7.50;99.90
73438;DHT22;62744;56.802;23.964;2022-11-06T03:00:21;7.30;99.90
73438;DHT22;62744;56.802;23.964;2022-11-06T03:03:17;7.40;99.90
73438;DHT22;62744;56.802;23.964;2022-11-06T03:05:59;7.50;99.90
73438;DHT22;62744;56.802;23.964;2022-11-06T03:08:54;7.30;99.90
73438;DHT22;62744;56.802;23.964;2022-11-06T03:11:31;7.30;99.90
73438;DHT22;62744;56.802;23.964;2022-11-06T03:17:20;7.40;99.90
73438;DHT22;62744;56.802;23.964;2022-11-06T03:20:15;7.50;99.90
73438;DHT22;62744;56.802;23.964;2022-11-06T03:23:31;7.40;99.90
73438;DHT22;62744;56.802;23.964;2022-11-06T03:25:49;7.50;99.90
73438;DHT22;62744;56.802;23.964;2022-11-06T03:28:33;7.50;99.90
73438;DHT22;62744;56.802;23.964;2022-11-06T03:31:05;7.50;99.90
73438;DHT22;62744;56.802;23.964;2022-11-06T03:33:39;7.40;99.90
73438;DHT22;62744;56.802;23.964;2022-11-06T03:38:53;7.40;99.90
73438;DHT22;62744;56.802;23.964;2022-11-06T03:41:42;7.60;99.90
73438;DHT22;62744;56.802;23.964;2022-11-06T03:44:14;7.60;99.90
73438;DHT22;62744;56.802;23.964;2022-11-06T03:47:28;7.60;99.90
73438;DHT22;62744;56.802;23.964;2022-11-06T03:49:47;7.60;99.90
73438;DHT22;62744;56.802;23.964;2022-11-06T03:52:21;7.60;99.90
73438;DHT22;62744;56.802;23.964;2022-11-06T03:55:00;7.70;99.90
73438;DHT22;62744;56.802;23.964;2022-11-06T03:57:51;7.60;99.90
73438;DHT22;62744;56.802;23.964;2022-11-06T04:00:22;7.60;99.90
73438;DHT22;62744;56.802;23.964;2022-11-06T04:02:53;7.70;99.90
73438;DHT22;62744;56.802;23.964;2022-11-06T04:05:40;7.60;99.90
73438;DHT22;62744;56.802;23.964;2022-11-06T04:08:09;7.60;99.90
73438;DHT22;62744;56.802;23.964;2022-11-06T04:10:59;7.70;99.90
73438;DHT22;62744;56.802;23.964;2022-11-06T04:13:47;7.60;99.90
73438;DHT22;62744;56.802;23.964;2022-11-06T04:16:37;7.70;99.90
73438;DHT22;62744;56.802;23.964;2022-11-06T04:19:13;7.70;99.90
73438;DHT22;62744;56.802;23.964;2022-11-06T04:25:14;7.70;99.90
73438;DHT22;62744;56.802;23.964;2022-11-06T04:31:23;7.60;99.90
73438;DHT22;62744;56.802;23.964;2022-11-06T04:37:10;7.70;99.90
73438;DHT22;62744;56.802;23.964;2022-11-06T04:40:21;7.70;99.90
73438;DHT22;62744;56.802;23.964;2022-11-06T04:45:35;7.70;99.90
73438;DHT22;62744;56.802;23.964;2022-11-06T04:48:04;7.70;99.90
73438;DHT22;62744;56.802;23.964;2022-11-06T04:50:37;7.70;99.90
73438;DHT22;62744;56.802;23.964;2022-11-06T04:53:06;7.70;99.90
73438;DHT22;62744;56.802;23.964;2022-11-06T04:55:53;7.70;99.90
73438;DHT22;62744;56.802;23.964;2022-11-06T04:58:21;7.60;99.90
73438;DHT22;62744;56.802;23.964;2022-11-06T05:00:50;7.60;99.90
73438;DHT22;62744;56.802;23.964;2022-11-06T05:03:18;7.60;99.90
73438;DHT22;62744;56.802;23.964;2022-11-06T05:05:45;7.60;99.90
73438;DHT22;62744;56.802;23.964;2022-11-06T05:08:14;7.60;99.90
73438;DHT22;62744;56.802;23.964;2022-11-06T05:10:43;7.70;99.90
73438;DHT22;62744;56.802;23.964;2022-11-06T05:13:11;7.90;99.90
73438;DHT22;62744;56.802;23.964;2022-11-06T05:15:39;7.70;99.90
73438;DHT22;62744;56.802;23.964;2022-11-06T05:18:07;7.60;99.90
73438;DHT22;62744;56.802;23.964;2022-11-06T05:20:35;7.70;99.90
73438;DHT22;62744;56.802;23.964;2022-11-06T05:23:03;7.80;99.90
73438;DHT22;62744;56.802;23.964;2022-11-06T05:25:36;7.80;99.90
73438;DHT22;62744;56.802;23.964;2022-11-06T05:28:06;7.70;99.90
73438;DHT22;62744;56.802;23.964;2022-11-06T05:30:35;7.70;99.90
73438;DHT22;62744;56.802;23.964;2022-11-06T05:33:03;7.70;99.90
73438;DHT22;62744;56.802;23.964;2022-11-06T05:35:30;7.70;99.90
73438;DHT22;62744;56.802;23.964;2022-11-06T05:38:00;7.70;99.90
73438;DHT22;62744;56.802;23.964;2022-11-06T05:40:28;7.70;99.90
73438;DHT22;62744;56.802;23.964;2022-11-06T05:42:56;7.90;99.90
73438;DHT22;62744;56.802;23.964;2022-11-06T05:45:23;7.90;99.90
73438;DHT22;62744;56.802;23.964;2022-11-06T05:47:50;7.80;99.90
73438;DHT22;62744;56.802;23.964;2022-11-06T05:50:18;7.80;99.90
73438;DHT22;62744;56.802;23.964;2022-11-06T05:52:45;7.90;99.90
73438;DHT22;62744;56.802;23.964;2022-11-06T05:55:12;7.80;99.90
73438;DHT22;62744;56.802;23.964;2022-11-06T05:57:41;7.80;99.90
73438;DHT22;62744;56.802;23.964;2022-11-06T06:00:11;7.70;99.90
73438;DHT22;62744;56.802;23.964;2022-11-06T06:02:39;7.90;99.90
73438;DHT22;62744;56.802;23.964;2022-11-06T06:05:07;7.80;99.90
73438;DHT22;62744;56.802;23.964;2022-11-06T06:07:35;7.80;99.90
73438;DHT22;62744;56.802;23.964;2022-11-06T06:10:03;7.70;99.90
73438;DHT22;62744;56.802;23.964;2022-11-06T06:12:31;7.70;99.90
73438;DHT22;62744;56.802;23.964;2022-11-06T06:14:58;7.80;99.90
73438;DHT22;62744;56.802;23.964;2022-11-06T06:17:25;7.80;99.90
73438;DHT22;62744;56.802;23.964;2022-11-06T06:19:53;7.80;99.90
73438;DHT22;62744;56.802;23.964;2022-11-06T06:22:20;7.80;99.90
73438;DHT22;62744;56.802;23.964;2022-11-06T06:24:48;7.90;99.90
73438;DHT22;62744;56.802;23.964;2022-11-06T06:27:16;7.90;99.90
73438;DHT22;62744;56.802;23.964;2022-11-06T06:29:44;7.80;99.90
73438;DHT22;62744;56.802;23.964;2022-11-06T06:32:11;7.90;99.90
73438;DHT22;62744;56.802;23.964;2022-11-06T06:34:39;7.90;99.90
73438;DHT22;62744;56.802;23.964;2022-11-06T06:37:07;7.80;99.90
73438;DHT22;62744;56.802;23.964;2022-11-06T06:39:35;7.90;99.90
73438;DHT22;62744;56.802;23.964;2022-11-06T06:42:02;7.90;99.90
73438;DHT22;62744;56.802;23.964;2022-11-06T06:44:30;8.00;99.90
73438;DHT22;62744;56.802;23.964;2022-11-06T06:46:57;8.00;99.90
73438;DHT22;62744;56.802;23.964;2022-11-06T06:49:25;7.90;99.90
73438;DHT22;62744;56.802;23.964;2022-11-06T06:51:53;7.90;99.90
73438;DHT22;62744;56.802;23.964;2022-11-06T06:54:21;7.90;99.90
73438;DHT22;62744;56.802;23.964;2022-11-06T06:56:48;8.00;99.90
73438;DHT22;62744;56.802;23.964;2022-11-06T06:59:16;8.00;99.90
73438;DHT22;62744;56.802;23.964;2022-11-06T07:01:43;8.00;99.90
73438;DHT22;62744;56.802;23.964;2022-11-06T07:04:11;7.90;99.90
73438;DHT22;62744;56.802;23.964;2022-11-06T07:06:38;8.10;99.90
73438;DHT22;62744;56.802;23.964;2022-11-06T07:09:06;8.20;99.90
73438;DHT22;62744;56.802;23.964;2022-11-06T07:11:33;8.10;99.90
73438;DHT22;62744;56.802;23.964;2022-11-06T07:14:01;8.20;99.90
73438;DHT22;62744;56.802;23.964;2022-11-06T07:16:28;8.10;99.90
73438;DHT22;62744;56.802;23.964;2022-11-06T07:18:56;8.20;99.90
73438;DHT22;62744;56.802;23.964;2022-11-06T07:21:23;8.20;99.90
73438;DHT22;62744;56.802;23.964;2022-11-06T07:23:51;8.30;99.90
73438;DHT22;62744;56.802;23.964;2022-11-06T07:26:19;8.30;99.90
73438;DHT22;62744;56.802;23.964;2022-11-06T07:28:46;8.30;99.90
73438;DHT22;62744;56.802;23.964;2022-11-06T07:31:14;8.20;99.90
73438;DHT22;62744;56.802;23.964;2022-11-06T07:33:42;8.20;99.90
73438;DHT22;62744;56.802;23.964;2022-11-06T07:36:11;8.30;99.90
73438;DHT22;62744;56.802;23.964;2022-11-06T07:38:41;8.40;99.90
73438;DHT22;62744;56.802;23.964;2022-11-06T07:41:11;8.50;99.90
73438;DHT22;62744;56.802;23.964;2022-11-06T07:43:40;8.40;99.90
73438;DHT22;62744;56.802;23.964;2022-11-06T07:46:10;8.50;99.90
73438;DHT22;62744;56.802;23.964;2022-11-06T07:48:38;8.50;99.90
73438;DHT22;62744;56.802;23.964;2022-11-06T07:51:07;8.60;99.90
73438;DHT22;62744;56.802;23.964;2022-11-06T07:53:36;8.50;99.90
73438;DHT22;62744;56.802;23.964;2022-11-06T07:56:04;8.60;99.90
73438;DHT22;62744;56.802;23.964;2022-11-06T07:58:32;8.70;99.90
73438;DHT22;62744;56.802;23.964;2022-11-06T08:01:00;8.70;99.90
73438;DHT22;62744;56.802;23.964;2022-11-06T08:03:28;8.70;99.90
73438;DHT22;62744;56.802;23.964;2022-11-06T08:05:57;8.70;99.90
73438;DHT22;62744;56.802;23.964;2022-11-06T08:08:26;8.80;99.90
73438;DHT22;62744;56.802;23.964;2022-11-06T08:10:53;9.20;99.90
73438;DHT22;62744;56.802;23.964;2022-11-06T08:13:21;9.20;99.50
73438;DHT22;62744;56.802;23.964;2022-11-06T08:15:48;9.10;99.90
73438;DHT22;62744;56.802;23.964;2022-11-06T08:18:16;9.00;99.90
73438;DHT22;62744;56.802;23.964;2022-11-06T08:20:44;9.00;99.90
73438;DHT22;62744;56.802;23.964;2022-11-06T08:23:12;9.00;99.40
73438;DHT22;62744;56.802;23.964;2022-11-06T08:25:39;9.00;99.80
73438;DHT22;62744;56.802;23.964;2022-11-06T08:28:08;8.90;99.30
73438;DHT22;62744;56.802;23.964;2022-11-06T08:30:37;8.90;99.90
73438;DHT22;62744;56.802;23.964;2022-11-06T08:33:06;8.90;99.90
73438;DHT22;62744;56.802;23.964;2022-11-06T08:35:34;8.90;99.70
73438;DHT22;62744;56.802;23.964;2022-11-06T08:38:02;8.90;99.90
73438;DHT22;62744;56.802;23.964;2022-11-06T08:40:30;9.00;99.60
73438;DHT22;62744;56.802;23.964;2022-11-06T08:43:02;8.90;99.90
73438;DHT22;62744;56.802;23.964;2022-11-06T08:45:30;8.90;99.90
73438;DHT22;62744;56.802;23.964;2022-11-06T08:48:03;8.90;99.90
73438;DHT22;62744;56.802;23.964;2022-11-06T08:50:35;8.90;99.90
73438;DHT22;62744;56.802;23.964;2022-11-06T08:53:05;9.00;99.90
73438;DHT22;62744;56.802;23.964;2022-11-06T08:55:35;9.00;99.60
73438;DHT22;62744;56.802;23.964;2022-11-06T08:58:04;9.00;99.80
73438;DHT22;62744;56.802;23.964;2022-11-06T09:00:33;9.10;99.70
73438;DHT22;62744;56.802;23.964;2022-11-06T09:03:10;9.00;99.80
73438;DHT22;62744;56.802;23.964;2022-11-06T09:05:39;9.00;99.60
73438;DHT22;62744;56.802;23.964;2022-11-06T09:08:08;9.10;99.90
73438;DHT22;62744;56.802;23.964;2022-11-06T09:10:38;9.00;99.90
73438;DHT22;62744;56.802;23.964;2022-11-06T09:13:06;9.10;99.90
73438;DHT22;62744;56.802;23.964;2022-11-06T09:15:34;9.00;99.90
73438;DHT22;62744;56.802;23.964;2022-11-06T09:18:03;9.00;99.90
73438;DHT22;62744;56.802;23.964;2022-11-06T09:20:33;9.00;99.80
73438;DHT22;62744;56.802;23.964;2022-11-06T09:23:04;9.10;99.90
73438;DHT22;62744;56.802;23.964;2022-11-06T09:25:32;9.10;99.90
73438;DHT22;62744;56.802;23.964;2022-11-06T09:28:00;9.20;99.90
73438;DHT22;62744;56.802;23.964;2022-11-06T09:30:29;9.00;99.80
73438;DHT22;62744;56.802;23.964;2022-11-06T09:33:00;9.10;99.90
73438;DHT22;62744;56.802;23.964;2022-11-06T09:35:29;9.10;99.80
73438;DHT22;62744;56.802;23.964;2022-11-06T09:38:02;9.10;99.90
73438;DHT22;62744;56.802;23.964;2022-11-06T09:40:42;9.10;99.90
73438;DHT22;62744;56.802;23.964;2022-11-06T09:46:30;9.10;99.90
73438;DHT22;62744;56.802;23.964;2022-11-06T09:49:00;9.10;99.90
73438;DHT22;62744;56.802;23.964;2022-11-06T09:56:40;9.10;99.90
73438;DHT22;62744;56.802;23.964;2022-11-06T09:59:15;9.20;99.90
73438;DHT22;62744;56.802;23.964;2022-11-06T10:01:57;9.20;99.90
73438;DHT22;62744;56.802;23.964;2022-11-06T10:07:03;9.20;99.90
73438;DHT22;62744;56.802;23.964;2022-11-06T10:09:30;9.30;99.90
73438;DHT22;62744;56.802;23.964;2022-11-06T10:18:03;9.30;99.60
73438;DHT22;62744;56.802;23.964;2022-11-06T10:20:56;9.30;99.80
73438;DHT22;62744;56.802;23.964;2022-11-06T10:26:16;9.20;99.90
73438;DHT22;62744;56.802;23.964;2022-11-06T10:34:14;9.30;99.90
73438;DHT22;62744;56.802;23.964;2022-11-06T10:36:53;9.40;99.60
73438;DHT22;62744;56.802;23.964;2022-11-06T10:39:28;9.40;99.60
73438;DHT22;62744;56.802;23.964;2022-11-06T10:42:05;9.40;99.90
73438;DHT22;62744;56.802;23.964;2022-11-06T10:44:40;9.50;99.90
73438;DHT22;62744;56.802;23.964;2022-11-06T10:47:22;9.40;99.90
73438;DHT22;62744;56.802;23.964;2022-11-06T10:49:55;9.50;99.90
73438;DHT22;62744;56.802;23.964;2022-11-06T10:52:47;9.50;99.40
73438;DHT22;62744;56.802;23.964;2022-11-06T10:58:22;9.50;99.30
73438;DHT22;62744;56.802;23.964;2022-11-06T11:00:52;9.60;99.20
73438;DHT22;62744;56.802;23.964;2022-11-06T11:03:30;9.70;99.30
73438;DHT22;62744;56.802;23.964;2022-11-06T11:05:59;9.70;99.10
73438;DHT22;62744;56.802;23.964;2022-11-06T11:08:41;9.80;98.90
73438;DHT22;62744;56.802;23.964;2022-11-06T11:11:23;9.90;98.30
73438;DHT22;62744;56.802;23.964;2022-11-06T11:16:38;10.00;97.90
73438;DHT22;62744;56.802;23.964;2022-11-06T11:19:34;10.10;97.90
73438;DHT22;62744;56.802;23.964;2022-11-06T11:22:09;10.00;96.50
73438;DHT22;62744;56.802;23.964;2022-11-06T11:25:15;9.90;97.70
73438;DHT22;62744;56.802;23.964;2022-11-06T11:27:51;9.90;97.80
73438;DHT22;62744;56.802;23.964;2022-11-06T11:30:23;9.90;97.20
73438;DHT22;62744;56.802;23.964;2022-11-06T11:32:53;9.80;97.90
73438;DHT22;62744;56.802;23.964;2022-11-06T11:35:28;9.90;98.30
73438;DHT22;62744;56.802;23.964;2022-11-06T11:38:12;9.90;98.00
73438;DHT22;62744;56.802;23.964;2022-11-06T11:40:40;10.00;98.60
73438;DHT22;62744;56.802;23.964;2022-11-06T11:43:29;10.10;97.60
73438;DHT22;62744;56.802;23.964;2022-11-06T11:51:34;10.20;97.50
73438;DHT22;62744;56.802;23.964;2022-11-06T11:54:21;10.30;97.20
73438;DHT22;62744;56.802;23.964;2022-11-06T11:57:00;10.40;97.10
73438;DHT22;62744;56.802;23.964;2022-11-06T12:04:42;10.40;97.20
73438;DHT22;62744;56.802;23.964;2022-11-06T12:07:31;10.30;97.10
73438;DHT22;62744;56.802;23.964;2022-11-06T12:10:02;10.40;96.90
73438;DHT22;62744;56.802;23.964;2022-11-06T12:12:48;10.50;97.40
73438;DHT22;62744;56.802;23.964;2022-11-06T12:15:19;10.40;97.40
73438;DHT22;62744;56.802;23.964;2022-11-06T12:18:03;10.40;96.70
73438;DHT22;62744;56.802;23.964;2022-11-06T12:23:04;10.30;97.20
73438;DHT22;62744;56.802;23.964;2022-11-06T12:25:40;10.40;97.10
73438;DHT22;62744;56.802;23.964;2022-11-06T12:28:15;10.40;97.40
73438;DHT22;62744;56.802;23.964;2022-11-06T12:30:45;10.40;98.10
73438;DHT22;62744;56.802;23.964;2022-11-06T12:33:20;10.50;97.40
73438;DHT22;62744;56.802;23.964;2022-11-06T12:36:12;10.40;97.10
73438;DHT22;62744;56.802;23.964;2022-11-06T12:38:56;10.40;97.80
73438;DHT22;62744;56.802;23.964;2022-11-06T12:41:34;10.40;97.80
73438;DHT22;62744;56.802;23.964;2022-11-06T12:44:03;10.40;97.50
73438;DHT22;62744;56.802;23.964;2022-11-06T13:00:19;10.50;98.20
73438;DHT22;62744;56.802;23.964;2022-11-06T13:14:19;10.90;96.10
73438;DHT22;62744;56.802;23.964;2022-11-06T13:20:20;10.80;96.30
73438;DHT22;62744;56.802;23.964;2022-11-06T13:30:53;10.80;93.60
73438;DHT22;62744;56.802;23.964;2022-11-06T13:33:27;10.80;93.80
73438;DHT22;62744;56.802;23.964;2022-11-06T13:35:58;10.70;93.30
73438;DHT22;62744;56.802;23.964;2022-11-06T13:38:48;10.60;94.00
73438;DHT22;62744;56.802;23.964;2022-11-06T13:41:27;10.60;93.90
73438;DHT22;62744;56.802;23.964;2022-11-06T13:44:08;10.40;93.60
73438;DHT22;62744;56.802;23.964;2022-11-06T13:49:34;10.10;94.50
73438;DHT22;62744;56.802;23.964;2022-11-06T13:52:21;10.10;94.70
73438;DHT22;62744;56.802;23.964;2022-11-06T13:58:02;9.90;95.70
73438;DHT22;62744;56.802;23.964;2022-11-06T14:00:56;9.90;95.50
73438;DHT22;62744;56.802;23.964;2022-11-06T14:04:06;9.80;96.00
73438;DHT22;62744;56.802;23.964;2022-11-06T14:06:42;9.70;95.60
73438;DHT22;62744;56.802;23.964;2022-11-06T14:09:18;9.60;95.60
73438;DHT22;62744;56.802;23.964;2022-11-06T14:11:53;9.50;96.00
73438;DHT22;62744;56.802;23.964;2022-11-06T14:17:21;9.40;96.30
73438;DHT22;62744;56.802;23.964;2022-11-06T14:22:31;9.30;97.20
73438;DHT22;62744;56.802;23.964;2022-11-06T14:24:59;9.20;97.00
73438;DHT22;62744;56.802;23.964;2022-11-06T14:32:41;9.20;97.00
73438;DHT22;62744;56.802;23.964;2022-11-06T14:40:53;9.00;97.20
73438;DHT22;62744;56.802;23.964;2022-11-06T14:43:31;9.00;97.30
73438;DHT22;62744;56.802;23.964;2022-11-06T14:48:37;8.90;96.90
73438;DHT22;62744;56.802;23.964;2022-11-06T14:51:07;8.80;96.60
73438;DHT22;62744;56.802;23.964;2022-11-06T14:53:57;8.80;99.70
73438;DHT22;62744;56.802;23.964;2022-11-06T14:56:29;9.10;99.90
73438;DHT22;62744;56.802;23.964;2022-11-06T14:59:15;10.10;99.90
73438;DHT22;62744;56.802;23.964;2022-11-06T15:02:16;9.90;95.60
73438;DHT22;62744;56.802;23.964;2022-11-06T15:05:04;9.70;94.30
73438;DHT22;62744;56.802;23.964;2022-11-06T15:13:11;9.00;95.80
73438;DHT22;62744;56.802;23.964;2022-11-06T15:15:51;8.90;95.40
73438;DHT22;62744;56.802;23.964;2022-11-06T15:18:23;8.90;96.70
73438;DHT22;62744;56.802;23.964;2022-11-06T15:20:59;8.90;96.60
73438;DHT22;62744;56.802;23.964;2022-11-06T15:26:19;8.80;96.60
73438;DHT22;62744;56.802;23.964;2022-11-06T15:31:29;8.80;95.90
73438;DHT22;62744;56.802;23.964;2022-11-06T15:34:00;8.70;96.30
73438;DHT22;62744;56.802;23.964;2022-11-06T15:36:37;8.50;96.40
73438;DHT22;62744;56.802;23.964;2022-11-06T15:42:26;8.30;96.80
73438;DHT22;62744;56.802;23.964;2022-11-06T15:50:28;8.30;96.40
73438;DHT22;62744;56.802;23.964;2022-11-06T16:00:43;8.10;96.60
73438;DHT22;62744;56.802;23.964;2022-11-06T16:03:18;8.20;96.70
73438;DHT22;62744;56.802;23.964;2022-11-06T16:05:46;8.10;96.60
73438;DHT22;62744;56.802;23.964;2022-11-06T16:08:18;7.90;96.30
73438;DHT22;62744;56.802;23.964;2022-11-06T16:10:47;7.90;95.80
73438;DHT22;62744;56.802;23.964;2022-11-06T16:13:17;7.80;95.80
73438;DHT22;62744;56.802;23.964;2022-11-06T16:15:59;7.80;95.90
73438;DHT22;62744;56.802;23.964;2022-11-06T16:18:34;7.80;95.60
73438;DHT22;62744;56.802;23.964;2022-11-06T16:21:15;7.70;95.40
73438;DHT22;62744;56.802;23.964;2022-11-06T16:23:51;7.70;95.70
73438;DHT22;62744;56.802;23.964;2022-11-06T16:26:23;7.60;95.60
73438;DHT22;62744;56.802;23.964;2022-11-06T16:28:53;7.50;95.00
73438;DHT22;62744;56.802;23.964;2022-11-06T16:31:27;7.50;95.00
73438;DHT22;62744;56.802;23.964;2022-11-06T16:33:58;7.40;95.70
73438;DHT22;62744;56.802;23.964;2022-11-06T16:36:31;7.40;95.60
73438;DHT22;62744;56.802;23.964;2022-11-06T16:47:11;7.10;96.00
73438;DHT22;62744;56.802;23.964;2022-11-06T16:49:41;6.90;96.00
73438;DHT22;62744;56.802;23.964;2022-11-06T16:52:27;6.80;96.30
73438;DHT22;62744;56.802;23.964;2022-11-06T16:55:20;6.90;96.40
73438;DHT22;62744;56.802;23.964;2022-11-06T16:57:52;6.80;97.20
73438;DHT22;62744;56.802;23.964;2022-11-06T17:03:36;6.70;96.60
73438;DHT22;62744;56.802;23.964;2022-11-06T17:05:51;6.70;96.40
73438;DHT22;62744;56.802;23.964;2022-11-06T17:08:23;6.60;97.50
73438;DHT22;62744;56.802;23.964;2022-11-06T17:10:53;6.80;96.90
73438;DHT22;62744;56.802;23.964;2022-11-06T17:13:25;6.60;96.70
73438;DHT22;62744;56.802;23.964;2022-11-06T17:16:15;6.70;97.20
73438;DHT22;62744;56.802;23.964;2022-11-06T17:18:43;6.60;97.10
73438;DHT22;62744;56.802;23.964;2022-11-06T17:21:13;6.60;97.10
73438;DHT22;62744;56.802;23.964;2022-11-06T17:23:43;6.60;97.50
73438;DHT22;62744;56.802;23.964;2022-11-06T17:28:50;6.50;96.90
73438;DHT22;62744;56.802;23.964;2022-11-06T17:31:20;6.30;96.80
73438;DHT22;62744;56.802;23.964;2022-11-06T17:33:52;6.40;97.20
73438;DHT22;62744;56.802;23.964;2022-11-06T17:36:26;6.30;97.00
73438;DHT22;62744;56.802;23.964;2022-11-06T17:38:56;6.20;96.90
73438;DHT22;62744;56.802;23.964;2022-11-06T17:41:25;5.90;97.50
73438;DHT22;62744;56.802;23.964;2022-11-06T17:44:07;6.00;97.50
73438;DHT22;62744;56.802;23.964;2022-11-06T17:46:37;6.10;97.70
73438;DHT22;62744;56.802;23.964;2022-11-06T17:49:07;5.80;98.20
73438;DHT22;62744;56.802;23.964;2022-11-06T17:51:41;5.80;98.40
73438;DHT22;62744;56.802;23.964;2022-11-06T17:54:32;5.70;98.60
73438;DHT22;62744;56.802;23.964;2022-11-06T17:57:02;5.70;98.80
73438;DHT22;62744;56.802;23.964;2022-11-06T17:59:33;5.90;98.40
73438;DHT22;62744;56.802;23.964;2022-11-06T18:02:01;5.80;98.40
73438;DHT22;62744;56.802;23.964;2022-11-06T18:04:29;5.80;98.90
73438;DHT22;62744;56.802;23.964;2022-11-06T18:06:57;5.70;98.80
73438;DHT22;62744;56.802;23.964;2022-11-06T18:09:26;5.80;98.60
73438;DHT22;62744;56.802;23.964;2022-11-06T18:11:54;5.70;98.50
73438;DHT22;62744;56.802;23.964;2022-11-06T18:14:24;5.60;98.80
73438;DHT22;62744;56.802;23.964;2022-11-06T18:16:53;5.70;98.40
73438;DHT22;62744;56.802;23.964;2022-11-06T18:19:22;5.70;98.40
73438;DHT22;62744;56.802;23.964;2022-11-06T18:21:51;5.70;98.60
73438;DHT22;62744;56.802;23.964;2022-11-06T18:24:22;5.60;98.70
73438;DHT22;62744;56.802;23.964;2022-11-06T18:26:51;5.60;98.40
73438;DHT22;62744;56.802;23.964;2022-11-06T18:29:20;5.60;98.30
73438;DHT22;62744;56.802;23.964;2022-11-06T18:31:49;5.50;98.50
73438;DHT22;62744;56.802;23.964;2022-11-06T18:34:18;5.60;98.20
73438;DHT22;62744;56.802;23.964;2022-11-06T18:36:51;5.40;98.50
73438;DHT22;62744;56.802;23.964;2022-11-06T18:39:19;5.30;98.60
73438;DHT22;62744;56.802;23.964;2022-11-06T18:41:47;5.40;98.50
73438;DHT22;62744;56.802;23.964;2022-11-06T18:44:16;5.40;98.40
73438;DHT22;62744;56.802;23.964;2022-11-06T18:46:45;5.50;99.90
73438;DHT22;62744;56.802;23.964;2022-11-06T18:49:14;5.40;98.80
73438;DHT22;62744;56.802;23.964;2022-11-06T18:51:41;5.30;98.30
73438;DHT22;62744;56.802;23.964;2022-11-06T18:54:11;5.40;98.40
73438;DHT22;62744;56.802;23.964;2022-11-06T18:56:42;5.30;98.40
73438;DHT22;62744;56.802;23.964;2022-11-06T18:59:16;5.30;98.10
73438;DHT22;62744;56.802;23.964;2022-11-06T19:01:47;5.10;98.20
73438;DHT22;62744;56.802;23.964;2022-11-06T19:04:15;5.30;98.50
73438;DHT22;62744;56.802;23.964;2022-11-06T19:06:44;5.20;98.10
73438;DHT22;62744;56.802;23.964;2022-11-06T19:09:12;5.10;98.00
73438;DHT22;62744;56.802;23.964;2022-11-06T19:11:40;5.10;98.30